createdAt,value
2023-05-22T00:00:13.840Z,21.10
2023-05-22T00:00:46.260Z,21.20
2023-05-22T00:01:18.766Z,27.90
2023-05-22T00:01:51.387Z,24.50
2023-05-22T00:02:23.839Z,22.40
2023-05-22T00:02:56.426Z,28.00
2023-05-22T00:03:28.912Z,29.60
2023-05-22T00:04:01.323Z,25.20
2023-05-22T00:04:33.872Z,24.10
2023-05-22T00:05:06.402Z,23.70
2023-05-22T00:05:38.915Z,24.20
2023-05-22T00:06:11.357Z,26.30
2023-05-22T00:06:43.952Z,26.40
2023-05-22T00:07:16.436Z,24.00
2023-05-22T00:07:48.994Z,21.00
2023-05-22T00:08:21.509Z,23.40
2023-05-22T00:08:54.615Z,24.40
2023-05-22T00:09:27.159Z,24.50
2023-05-22T00:09:59.608Z,23.70
2023-05-22T00:10:32.125Z,26.90
2023-05-22T00:11:04.652Z,31.40
2023-05-22T00:11:37.173Z,31.50
2023-05-22T00:12:09.679Z,25.60
2023-05-22T00:12:42.190Z,22.10
2023-05-22T00:13:14.656Z,24.50
2023-05-22T00:13:47.191Z,24.50
2023-05-22T00:14:19.750Z,20.90
2023-05-22T00:14:52.242Z,19.40
2023-05-22T00:15:24.785Z,22.00
2023-05-22T00:15:57.257Z,26.20
2023-05-22T00:16:29.913Z,26.40
2023-05-22T00:17:02.451Z,23.40
2023-05-22T00:17:34.946Z,22.50
2023-05-22T00:18:07.346Z,22.30
2023-05-22T00:18:39.794Z,21.80
2023-05-22T00:19:12.252Z,22.00
2023-05-22T00:19:45.607Z,22.70
2023-05-22T00:20:18.105Z,24.30
2023-05-22T00:20:50.559Z,26.20
2023-05-22T00:21:23.037Z,27.10
2023-05-22T00:21:55.558Z,24.80
2023-05-22T00:22:28.049Z,23.00
2023-05-22T00:23:00.561Z,20.50
2023-05-22T00:23:33.058Z,23.70
2023-05-22T00:24:05.547Z,27.50
2023-05-22T00:24:37.987Z,23.10
2023-05-22T00:25:10.502Z,23.60
2023-05-22T00:25:42.997Z,25.00
2023-05-22T00:26:15.457Z,20.90
2023-05-22T00:26:47.923Z,23.00
2023-05-22T00:27:20.399Z,23.90
2023-05-22T00:27:52.902Z,21.40
2023-05-22T00:28:25.373Z,21.40
2023-05-22T00:28:57.839Z,23.30
2023-05-22T00:29:30.324Z,25.60
2023-05-22T00:30:02.807Z,25.80
2023-05-22T00:30:35.317Z,26.00
2023-05-22T00:31:07.822Z,26.30
2023-05-22T00:31:40.316Z,22.40
2023-05-22T00:32:12.787Z,22.00
2023-05-22T00:32:45.321Z,21.50
2023-05-22T00:33:17.770Z,22.80
2023-05-22T00:33:50.347Z,25.60
2023-05-22T00:34:22.787Z,28.30
2023-05-22T00:34:55.240Z,25.10
2023-05-22T00:35:27.801Z,23.20
2023-05-22T00:36:00.283Z,23.80
2023-05-22T00:36:32.826Z,20.80
2023-05-22T00:37:05.341Z,21.20
2023-05-22T00:37:37.855Z,21.20
2023-05-22T00:38:10.318Z,22.10
2023-05-22T00:38:42.779Z,21.60
2023-05-22T00:39:15.206Z,25.00
2023-05-22T00:39:47.669Z,24.80
2023-05-22T00:40:20.125Z,23.20
2023-05-22T00:40:52.646Z,22.80
2023-05-22T00:41:25.092Z,27.00
2023-05-22T00:41:57.615Z,26.40
2023-05-22T00:42:30.094Z,21.20
2023-05-22T00:43:02.529Z,23.60
2023-05-22T00:43:35.004Z,24.20
2023-05-22T00:44:07.458Z,23.20
2023-05-22T00:44:39.946Z,21.70
2023-05-22T00:45:12.413Z,21.60
2023-05-22T00:45:44.880Z,23.20
2023-05-22T00:46:17.450Z,21.10
2023-05-22T00:46:49.897Z,20.80
2023-05-22T00:47:22.343Z,20.90
2023-05-22T00:47:54.807Z,22.40
2023-05-22T00:48:27.276Z,26.80
2023-05-22T00:48:59.758Z,28.20
2023-05-22T00:49:32.343Z,23.80
2023-05-22T00:50:04.825Z,22.00
2023-05-22T00:50:37.490Z,24.70
2023-05-22T00:51:09.833Z,24.70
2023-05-22T00:51:42.375Z,23.60
2023-05-22T00:52:14.822Z,21.50
2023-05-22T00:52:47.287Z,24.30
2023-05-22T00:53:19.882Z,23.60
2023-05-22T00:53:52.395Z,21.80
2023-05-22T00:54:24.983Z,25.50
2023-05-22T00:54:57.575Z,22.90
2023-05-22T00:55:30.049Z,23.30
2023-05-22T00:56:02.559Z,24.30
2023-05-22T00:56:35.065Z,26.00
2023-05-22T00:57:07.522Z,23.00
2023-05-22T00:57:40.044Z,21.30
2023-05-22T00:58:12.479Z,21.90
2023-05-22T00:58:44.921Z,19.80
2023-05-22T00:59:17.416Z,22.40
2023-05-22T00:59:49.914Z,27.50
2023-05-22T01:00:22.511Z,25.70
2023-05-22T01:00:55.031Z,23.70
2023-05-22T01:01:27.488Z,24.30
2023-05-22T01:01:59.987Z,23.30
2023-05-22T01:02:32.594Z,20.90
2023-05-22T01:03:05.037Z,20.20
2023-05-22T01:03:37.627Z,22.30
2023-05-22T01:04:10.057Z,22.20
2023-05-22T01:04:42.498Z,22.40
2023-05-22T01:05:14.939Z,23.80
2023-05-22T01:05:47.452Z,25.10
2023-05-22T01:06:19.984Z,24.10
2023-05-22T01:06:52.452Z,21.20
2023-05-22T01:07:24.990Z,23.50
2023-05-22T01:07:57.502Z,23.40
2023-05-22T01:08:30.053Z,21.40
2023-05-22T01:09:02.497Z,20.40
2023-05-22T01:09:34.981Z,19.90
2023-05-22T01:10:07.501Z,19.70
2023-05-22T01:10:40.226Z,20.80
2023-05-22T01:11:12.565Z,24.60
2023-05-22T01:11:45.085Z,24.80
2023-05-22T01:12:17.522Z,24.30
2023-05-22T01:12:50.032Z,24.20
2023-05-22T01:13:22.541Z,23.80
2023-05-22T01:13:55.109Z,24.00
2023-05-22T01:14:27.543Z,25.50
2023-05-22T01:15:00.133Z,24.70
2023-05-22T01:15:32.617Z,23.70
2023-05-22T01:16:05.116Z,23.20
2023-05-22T01:16:37.794Z,22.10
2023-05-22T01:17:10.250Z,19.90
2023-05-22T01:17:42.796Z,22.20
2023-05-22T01:18:15.205Z,23.00
2023-05-22T01:18:47.732Z,20.10
2023-05-22T01:19:20.180Z,19.30
2023-05-22T01:19:52.616Z,20.80
2023-05-22T01:20:25.080Z,23.80
2023-05-22T01:20:57.538Z,24.60
2023-05-22T01:21:30.067Z,24.70
2023-05-22T01:22:02.598Z,24.00
2023-05-22T01:22:35.093Z,20.50
2023-05-22T01:23:07.652Z,21.00
2023-05-22T01:23:40.100Z,23.10
2023-05-22T01:24:12.655Z,24.10
2023-05-22T01:24:45.121Z,25.80
2023-05-22T01:25:17.607Z,24.00
2023-05-22T01:25:50.116Z,22.50
2023-05-22T01:26:22.584Z,22.50
2023-05-22T01:26:55.033Z,26.70
2023-05-22T01:27:27.501Z,23.80
2023-05-22T01:28:00.131Z,25.50
2023-05-22T01:28:32.559Z,25.80
2023-05-22T01:29:05.021Z,25.90
2023-05-22T01:29:37.547Z,25.60
2023-05-22T01:30:10.008Z,23.20
2023-05-22T01:30:42.459Z,22.60
2023-05-22T01:31:14.981Z,23.20
2023-05-22T01:31:47.443Z,23.90
2023-05-22T01:32:19.897Z,23.80
2023-05-22T01:32:52.411Z,24.00
2023-05-22T01:33:25.027Z,21.60
2023-05-22T01:33:57.603Z,22.20
2023-05-22T01:34:30.962Z,27.30
2023-05-22T01:35:03.528Z,26.60
2023-05-22T01:35:36.041Z,23.30
2023-05-22T01:36:08.458Z,20.80
2023-05-22T01:36:40.897Z,21.90
2023-05-22T01:37:13.359Z,23.60
2023-05-22T01:37:45.860Z,27.40
2023-05-22T01:38:18.406Z,25.70
2023-05-22T01:38:50.901Z,22.10
2023-05-22T01:39:23.376Z,19.50
2023-05-22T01:39:55.902Z,18.90
2023-05-22T01:40:28.366Z,18.70
2023-05-22T01:41:00.860Z,19.70
2023-05-22T01:41:33.337Z,23.50
2023-05-22T01:42:05.788Z,23.00
2023-05-22T01:42:38.302Z,23.40
2023-05-22T01:43:10.798Z,23.10
2023-05-22T01:43:43.424Z,21.80
2023-05-22T01:44:15.946Z,24.70
2023-05-22T01:44:48.496Z,26.80
2023-05-22T01:45:20.996Z,21.90
2023-05-22T01:45:53.541Z,21.80
2023-05-22T01:46:26.052Z,23.30
2023-05-22T01:46:58.594Z,20.60
2023-05-22T01:47:31.200Z,21.10
2023-05-22T01:48:03.729Z,23.10
2023-05-22T01:48:36.197Z,22.40
2023-05-22T01:49:08.689Z,21.30
2023-05-22T01:49:41.177Z,22.10
2023-05-22T01:50:13.685Z,20.70
2023-05-22T01:50:46.169Z,21.90
2023-05-22T01:51:18.618Z,22.60
2023-05-22T01:51:51.068Z,25.90
2023-05-22T01:52:23.590Z,23.60
2023-05-22T01:52:56.097Z,24.00
2023-05-22T01:53:28.591Z,23.80
2023-05-22T01:54:01.097Z,21.70
2023-05-22T01:54:33.616Z,23.80
2023-05-22T01:55:06.091Z,25.70
2023-05-22T01:55:38.554Z,23.30
2023-05-22T01:56:11.047Z,22.40
2023-05-22T01:56:43.562Z,20.90
2023-05-22T01:57:17.247Z,19.50
2023-05-22T01:57:52.765Z,22.40
2023-05-22T01:58:25.253Z,19.60
2023-05-22T01:58:57.733Z,20.00
2023-05-22T01:59:30.445Z,21.50
2023-05-22T02:00:02.983Z,20.90
2023-05-22T02:00:35.478Z,20.20
2023-05-22T02:01:07.964Z,26.70
2023-05-22T02:01:40.491Z,29.60
2023-05-22T02:02:13.056Z,25.20
2023-05-22T02:02:45.537Z,22.90
2023-05-22T02:03:18.101Z,22.20
2023-05-22T02:03:50.448Z,21.60
2023-05-22T02:04:22.923Z,21.30
2023-05-22T02:04:55.394Z,23.00
2023-05-22T02:05:27.846Z,24.60
2023-05-22T02:06:00.308Z,24.70
2023-05-22T02:06:32.780Z,24.70
2023-05-22T02:07:05.341Z,24.10
2023-05-22T02:07:37.811Z,23.50
2023-05-22T02:08:10.355Z,22.40
2023-05-22T02:08:42.852Z,21.70
2023-05-22T02:09:15.399Z,23.70
2023-05-22T02:09:48.949Z,22.10
2023-05-22T02:10:21.432Z,21.70
2023-05-22T02:10:53.936Z,24.20
2023-05-22T02:11:26.467Z,25.40
2023-05-22T02:11:58.922Z,23.20
2023-05-22T02:12:31.397Z,22.50
2023-05-22T02:13:03.950Z,29.20
2023-05-22T02:13:36.446Z,28.90
2023-05-22T02:14:08.884Z,23.80
2023-05-22T02:14:41.346Z,19.70
2023-05-22T02:15:13.830Z,20.50
2023-05-22T02:15:46.389Z,24.40
2023-05-22T02:16:18.861Z,22.80
2023-05-22T02:16:51.285Z,23.40
2023-05-22T02:17:23.847Z,23.80
2023-05-22T02:17:56.368Z,23.90
2023-05-22T02:18:28.783Z,21.30
2023-05-22T02:19:01.300Z,24.90
2023-05-22T02:19:33.766Z,25.30
2023-05-22T02:20:06.171Z,22.80
2023-05-22T02:20:38.824Z,23.10
2023-05-22T02:21:11.135Z,20.90
2023-05-22T02:21:43.579Z,21.80
2023-05-22T02:22:16.113Z,23.40
2023-05-22T02:22:48.559Z,25.20
2023-05-22T02:23:21.023Z,25.90
2023-05-22T02:23:53.479Z,27.00
2023-05-22T02:24:25.960Z,22.80
2023-05-22T02:24:58.452Z,20.10
2023-05-22T02:25:30.886Z,21.90
2023-05-22T02:26:03.416Z,23.70
2023-05-22T02:26:35.871Z,21.70
2023-05-22T02:27:08.334Z,23.10
2023-05-22T02:27:40.806Z,24.40
2023-05-22T02:28:13.298Z,21.70
2023-05-22T02:28:45.737Z,22.30
2023-05-22T02:29:18.224Z,23.30
2023-05-22T02:29:50.728Z,23.10
2023-05-22T02:30:23.208Z,23.60
2023-05-22T02:30:55.721Z,23.50
2023-05-22T02:31:28.239Z,28.30
2023-05-22T02:32:00.699Z,24.10
2023-05-22T02:32:33.204Z,20.70
2023-05-22T02:33:05.734Z,23.30
2023-05-22T02:33:38.194Z,25.70
2023-05-22T02:34:10.764Z,26.90
2023-05-22T02:34:43.260Z,25.90
2023-05-22T02:35:15.770Z,22.80
2023-05-22T02:35:48.268Z,22.30
2023-05-22T02:36:20.721Z,23.00
2023-05-22T02:36:53.203Z,27.00
2023-05-22T02:37:25.667Z,27.70
2023-05-22T02:37:58.157Z,27.20
2023-05-22T02:38:30.614Z,26.10
2023-05-22T02:39:03.174Z,26.70
2023-05-22T02:39:35.651Z,26.00
2023-05-22T02:40:08.099Z,24.50
2023-05-22T02:40:40.775Z,28.30
2023-05-22T02:41:13.451Z,28.10
2023-05-22T02:41:45.945Z,21.80
2023-05-22T02:42:18.479Z,23.20
2023-05-22T02:42:51.047Z,23.70
2023-05-22T02:43:23.496Z,25.60
2023-05-22T02:43:56.030Z,24.70
2023-05-22T02:44:28.531Z,23.90
2023-05-22T02:45:01.047Z,24.40
2023-05-22T02:45:33.606Z,22.10
2023-05-22T02:46:06.151Z,22.30
2023-05-22T02:46:42.239Z,22.80
2023-05-22T02:47:14.721Z,24.20
2023-05-22T02:47:47.302Z,24.50
2023-05-22T02:48:19.867Z,22.50
2023-05-22T02:48:52.391Z,21.30
2023-05-22T02:49:24.889Z,22.30
2023-05-22T02:49:57.513Z,22.80
2023-05-22T02:50:30.031Z,21.50
2023-05-22T02:51:02.492Z,24.80
2023-05-22T02:51:35.045Z,30.40
2023-05-22T02:52:07.611Z,27.30
2023-05-22T02:52:40.117Z,22.70
2023-05-22T02:53:12.616Z,21.50
2023-05-22T02:53:45.084Z,21.50
2023-05-22T02:54:17.637Z,22.30
2023-05-22T02:54:50.203Z,21.30
2023-05-22T02:55:22.736Z,23.80
2023-05-22T02:55:55.213Z,27.60
2023-05-22T02:56:27.666Z,24.80
2023-05-22T02:57:00.146Z,22.00
2023-05-22T02:57:32.653Z,25.20
2023-05-22T02:58:05.157Z,27.50
2023-05-22T02:58:37.640Z,25.60
2023-05-22T02:59:10.141Z,22.60
2023-05-22T02:59:42.668Z,24.20
2023-05-22T03:00:15.173Z,26.40
2023-05-22T03:00:47.648Z,26.90
2023-05-22T03:01:20.122Z,25.30
2023-05-22T03:01:52.680Z,24.70
2023-05-22T03:02:25.163Z,22.10
2023-05-22T03:02:57.673Z,22.80
2023-05-22T03:03:30.257Z,23.10
2023-05-22T03:04:02.732Z,21.20
2023-05-22T03:04:35.136Z,21.40
2023-05-22T03:05:07.647Z,22.70
2023-05-22T03:05:40.168Z,23.00
2023-05-22T03:06:12.675Z,23.60
2023-05-22T03:06:45.210Z,26.50
2023-05-22T03:07:17.794Z,24.10
2023-05-22T03:07:50.307Z,19.20
2023-05-22T03:08:22.832Z,21.10
2023-05-22T03:08:55.296Z,23.20
2023-05-22T03:09:27.749Z,22.50
2023-05-22T03:10:00.229Z,24.10
2023-05-22T03:10:32.714Z,25.40
2023-05-22T03:11:05.182Z,22.80
2023-05-22T03:11:37.942Z,20.60
2023-05-22T03:12:10.456Z,21.00
2023-05-22T03:12:42.976Z,20.90
2023-05-22T03:13:15.410Z,21.80
2023-05-22T03:13:47.946Z,23.00
2023-05-22T03:14:20.418Z,21.50
2023-05-22T03:14:52.980Z,20.50
2023-05-22T03:15:25.561Z,23.20
2023-05-22T03:15:58.117Z,19.60
2023-05-22T03:16:30.588Z,20.30
2023-05-22T03:17:22.423Z,21.90
2023-05-22T03:17:54.892Z,22.90
2023-05-22T03:18:27.725Z,20.80
2023-05-22T03:18:59.913Z,18.50
2023-05-22T03:19:32.412Z,18.80
2023-05-22T03:20:04.835Z,18.50
2023-05-22T03:20:37.445Z,20.90
2023-05-22T03:21:09.824Z,23.70
2023-05-22T03:21:42.298Z,20.70
2023-05-22T03:22:14.743Z,20.10
2023-05-22T03:22:47.185Z,23.80
2023-05-22T03:23:19.660Z,22.40
2023-05-22T03:23:52.185Z,19.80
2023-05-22T03:24:24.674Z,23.40
2023-05-22T03:24:57.140Z,21.20
2023-05-22T03:25:29.719Z,18.40
2023-05-22T03:26:02.214Z,19.80
2023-05-22T03:26:34.681Z,19.60
2023-05-22T03:27:07.202Z,18.30
2023-05-22T03:27:39.732Z,17.70
2023-05-22T03:28:12.231Z,18.00
2023-05-22T03:28:44.731Z,18.50
2023-05-22T03:29:17.181Z,19.90
2023-05-22T03:29:49.687Z,19.90
2023-05-22T03:30:22.178Z,23.50
2023-05-22T03:30:54.652Z,22.60
2023-05-22T03:31:27.245Z,21.80
2023-05-22T03:31:59.668Z,20.70
2023-05-22T03:32:32.430Z,19.70
2023-05-22T03:33:05.715Z,20.30
2023-05-22T03:33:38.248Z,21.90
2023-05-22T03:34:10.699Z,21.20
2023-05-22T03:34:43.110Z,23.70
2023-05-22T03:35:15.548Z,22.50
2023-05-22T03:35:48.026Z,21.70
2023-05-22T03:36:20.487Z,23.10
2023-05-22T03:36:52.963Z,20.80
2023-05-22T03:37:25.438Z,19.90
2023-05-22T03:37:57.865Z,17.00
2023-05-22T03:38:30.377Z,19.40
2023-05-22T03:39:02.781Z,21.40
2023-05-22T03:39:35.255Z,22.20
2023-05-22T03:40:07.715Z,20.80
2023-05-22T03:40:40.272Z,17.90
2023-05-22T03:41:12.657Z,19.40
2023-05-22T03:41:45.137Z,20.80
2023-05-22T03:42:17.582Z,19.70
2023-05-22T03:42:50.091Z,19.80
2023-05-22T03:43:22.590Z,19.40
2023-05-22T03:43:55.021Z,18.50
2023-05-22T03:44:27.473Z,20.60
2023-05-22T03:44:59.931Z,21.40
2023-05-22T03:45:32.390Z,21.20
2023-05-22T03:46:04.885Z,19.60
2023-05-22T03:46:56.753Z,19.30
2023-05-22T03:47:29.214Z,20.20
2023-05-22T03:48:01.700Z,19.60
2023-05-22T03:48:34.085Z,18.60
2023-05-22T03:49:06.644Z,19.20
2023-05-22T03:49:39.029Z,19.50
2023-05-22T03:50:11.491Z,19.60
2023-05-22T03:50:43.966Z,20.40
2023-05-22T03:51:18.074Z,18.70
2023-05-22T03:51:48.860Z,17.00
2023-05-22T03:52:21.311Z,20.00
2023-05-22T03:52:53.836Z,24.00
2023-05-22T03:53:26.273Z,19.50
2023-05-22T03:53:58.746Z,19.50
2023-05-22T03:54:31.220Z,19.10
2023-05-22T03:55:03.698Z,18.70
2023-05-22T03:55:36.201Z,20.10
2023-05-22T03:56:08.613Z,22.30
2023-05-22T03:56:41.062Z,18.30
2023-05-22T03:57:13.507Z,20.70
2023-05-22T03:57:45.987Z,21.40
2023-05-22T03:58:18.477Z,19.40
2023-05-22T03:58:50.963Z,22.00
2023-05-22T03:59:23.405Z,19.60
2023-05-22T03:59:55.848Z,16.00
2023-05-22T04:00:28.359Z,18.50
2023-05-22T04:01:00.799Z,19.50
2023-05-22T04:01:33.298Z,19.40
2023-05-22T04:02:05.809Z,20.90
2023-05-22T04:02:38.373Z,20.10
2023-05-22T04:03:10.798Z,21.10
2023-05-22T04:03:43.199Z,21.20
2023-05-22T04:04:15.610Z,21.20
2023-05-22T04:04:48.218Z,21.30
2023-05-22T04:05:20.586Z,20.00
2023-05-22T04:05:53.091Z,21.40
2023-05-22T04:06:25.629Z,20.10
2023-05-22T04:06:58.193Z,25.20
2023-05-22T04:07:30.535Z,25.40
2023-05-22T04:08:03.136Z,19.20
2023-05-22T04:08:35.611Z,20.20
2023-05-22T04:09:08.150Z,19.70
2023-05-22T04:09:40.578Z,18.50
2023-05-22T04:10:13.067Z,19.40
2023-05-22T04:10:45.513Z,19.30
2023-05-22T04:11:17.961Z,19.00
2023-05-22T04:11:50.396Z,19.80
2023-05-22T04:12:22.881Z,18.60
2023-05-22T04:12:55.352Z,18.90
2023-05-22T04:13:27.801Z,19.20
2023-05-22T04:14:00.247Z,21.90
2023-05-22T04:14:32.702Z,23.20
2023-05-22T04:15:05.145Z,23.70
2023-05-22T04:15:37.664Z,23.40
2023-05-22T04:16:10.202Z,20.40
2023-05-22T04:16:42.651Z,20.00
2023-05-22T04:17:15.121Z,20.80
2023-05-22T04:17:47.630Z,18.30
2023-05-22T04:18:20.125Z,20.30
2023-05-22T04:18:52.597Z,23.30
2023-05-22T04:19:25.092Z,22.90
2023-05-22T04:19:57.482Z,20.60
2023-05-22T04:20:29.934Z,17.90
2023-05-22T04:21:02.381Z,22.70
2023-05-22T04:21:34.867Z,22.70
2023-05-22T04:22:07.312Z,21.50
2023-05-22T04:22:39.789Z,21.10
2023-05-22T04:23:12.221Z,19.90
2023-05-22T04:23:44.709Z,23.20
2023-05-22T04:24:17.139Z,22.60
2023-05-22T04:24:49.627Z,21.10
2023-05-22T04:25:22.098Z,20.40
2023-05-22T04:25:54.555Z,20.70
2023-05-22T04:26:27.029Z,21.90
2023-05-22T04:26:59.490Z,22.10
2023-05-22T04:27:31.947Z,22.50
2023-05-22T04:28:04.429Z,25.10
2023-05-22T04:28:36.887Z,22.80
2023-05-22T04:29:09.363Z,21.60
2023-05-22T04:29:41.848Z,19.60
2023-05-22T04:30:14.323Z,19.70
2023-05-22T04:30:46.772Z,21.80
2023-05-22T04:31:19.203Z,22.50
2023-05-22T04:31:51.647Z,23.00
2023-05-22T04:32:24.140Z,22.90
2023-05-22T04:32:56.618Z,23.80
2023-05-22T04:33:29.104Z,36.10
2023-05-22T04:34:01.572Z,34.60
2023-05-22T04:34:34.032Z,19.20
2023-05-22T04:35:06.487Z,20.30
2023-05-22T04:35:39.008Z,23.40
2023-05-22T04:36:12.557Z,21.80
2023-05-22T04:36:43.972Z,22.20
2023-05-22T04:37:16.411Z,20.70
2023-05-22T04:37:48.935Z,21.40
2023-05-22T04:38:21.423Z,21.70
2023-05-22T04:38:53.912Z,21.90
2023-05-22T04:39:26.469Z,22.90
2023-05-22T04:39:58.798Z,20.80
2023-05-22T04:40:31.298Z,25.30
2023-05-22T04:41:03.755Z,24.90
2023-05-22T04:41:36.211Z,20.70
2023-05-22T04:42:08.667Z,19.10
2023-05-22T04:42:41.119Z,22.60
2023-05-22T04:43:13.566Z,23.90
2023-05-22T04:43:46.105Z,20.50
2023-05-22T04:44:18.565Z,20.30
2023-05-22T04:44:51.054Z,22.70
2023-05-22T04:45:23.528Z,21.70
2023-05-22T04:45:55.975Z,19.50
2023-05-22T04:46:28.473Z,22.10
2023-05-22T04:47:00.914Z,22.80
2023-05-22T04:47:33.360Z,19.00
2023-05-22T04:48:05.867Z,21.50
2023-05-22T04:48:38.251Z,19.60
2023-05-22T04:49:10.744Z,20.30
2023-05-22T04:49:43.224Z,22.10
2023-05-22T04:50:15.694Z,19.20
2023-05-22T04:50:48.152Z,22.30
2023-05-22T04:51:20.611Z,25.20
2023-05-22T04:51:53.063Z,23.90
2023-05-22T04:52:25.585Z,18.90
2023-05-22T04:52:57.992Z,20.40
2023-05-22T04:53:30.432Z,23.10
2023-05-22T04:54:02.913Z,21.20
2023-05-22T04:54:35.387Z,18.80
2023-05-22T04:55:07.847Z,19.60
2023-05-22T04:55:40.280Z,22.40
2023-05-22T04:56:14.655Z,21.30
2023-05-22T04:56:45.172Z,19.30
2023-05-22T04:57:17.609Z,22.00
2023-05-22T04:57:50.121Z,22.30
2023-05-22T04:58:22.546Z,20.30
2023-05-22T04:58:55.037Z,19.40
2023-05-22T04:59:27.508Z,21.00
2023-05-22T04:59:59.964Z,22.10
2023-05-22T05:00:32.560Z,23.60
2023-05-22T05:01:04.938Z,22.30
2023-05-22T05:01:37.461Z,20.00
2023-05-22T05:02:09.814Z,19.30
2023-05-22T05:02:42.353Z,22.20
2023-05-22T05:03:14.795Z,21.50
2023-05-22T05:03:47.324Z,20.40
2023-05-22T05:04:19.844Z,19.90
2023-05-22T05:04:52.307Z,19.00
2023-05-22T05:05:24.775Z,19.30
2023-05-22T05:05:57.226Z,19.70
2023-05-22T05:06:29.734Z,22.00
2023-05-22T05:07:02.240Z,21.90
2023-05-22T05:07:34.698Z,20.70
2023-05-22T05:08:07.151Z,18.70
2023-05-22T05:08:39.653Z,37.10
2023-05-22T05:09:12.107Z,36.20
2023-05-22T05:09:44.590Z,19.90
2023-05-22T05:10:17.046Z,18.20
2023-05-22T05:10:49.477Z,19.10
2023-05-22T05:11:21.926Z,22.90
2023-05-22T05:11:54.354Z,21.60
2023-05-22T05:12:26.792Z,21.40
2023-05-22T05:12:59.235Z,21.50
2023-05-22T05:13:31.694Z,19.90
2023-05-22T05:14:04.194Z,20.20
2023-05-22T05:14:36.634Z,24.90
2023-05-22T05:15:09.096Z,27.50
2023-05-22T05:15:41.565Z,19.00
2023-05-22T05:16:14.042Z,16.50
2023-05-22T05:16:46.530Z,18.80
2023-05-22T05:17:18.966Z,18.00
2023-05-22T05:17:51.488Z,21.50
2023-05-22T05:18:23.937Z,22.30
2023-05-22T05:18:56.411Z,19.20
2023-05-22T05:19:28.893Z,18.90
2023-05-22T05:20:01.297Z,18.70
2023-05-22T05:20:33.776Z,17.30
2023-05-22T05:21:06.245Z,19.90
2023-05-22T05:21:38.719Z,23.70
2023-05-22T05:22:11.184Z,20.60
2023-05-22T05:22:43.625Z,20.70
2023-05-22T05:23:16.134Z,21.90
2023-05-22T05:23:48.694Z,23.30
2023-05-22T05:24:21.154Z,20.70
2023-05-22T05:24:53.586Z,18.80
2023-05-22T05:25:26.050Z,20.90
2023-05-22T05:25:58.515Z,22.90
2023-05-22T05:26:31.018Z,17.60
2023-05-22T05:27:03.511Z,17.50
2023-05-22T05:27:36.002Z,17.80
2023-05-22T05:28:08.462Z,19.90
2023-05-22T05:28:40.947Z,20.00
2023-05-22T05:29:13.393Z,21.30
2023-05-22T05:29:45.825Z,20.60
2023-05-22T05:30:20.161Z,18.90
2023-05-22T05:30:50.770Z,17.40
2023-05-22T05:31:23.238Z,21.70
2023-05-22T05:31:55.715Z,24.00
2023-05-22T05:32:28.199Z,21.20
2023-05-22T05:33:00.722Z,19.60
2023-05-22T05:33:33.131Z,19.90
2023-05-22T05:34:05.598Z,18.30
2023-05-22T05:34:38.132Z,17.40
2023-05-22T05:35:10.584Z,15.30
2023-05-22T05:35:43.227Z,16.80
2023-05-22T05:36:15.532Z,19.10
2023-05-22T05:36:48.009Z,19.30
2023-05-22T05:37:20.480Z,20.00
2023-05-22T05:37:52.978Z,18.10
2023-05-22T05:38:25.445Z,18.70
2023-05-22T05:38:57.914Z,20.80
2023-05-22T05:39:30.372Z,20.10
2023-05-22T05:40:02.841Z,17.50
2023-05-22T05:40:35.295Z,17.20
2023-05-22T05:41:07.765Z,16.20
2023-05-22T05:41:40.214Z,15.30
2023-05-22T05:42:12.692Z,16.80
2023-05-22T05:42:45.159Z,17.80
2023-05-22T05:43:17.632Z,19.90
2023-05-22T05:43:50.092Z,21.60
2023-05-22T05:44:22.634Z,20.10
2023-05-22T05:44:55.147Z,20.80
2023-05-22T05:45:27.691Z,19.70
2023-05-22T05:46:00.237Z,21.00
2023-05-22T05:46:32.680Z,24.30
2023-05-22T05:47:05.109Z,23.70
2023-05-22T05:47:37.593Z,21.90
2023-05-22T05:48:10.047Z,19.10
2023-05-22T05:48:42.478Z,18.30
2023-05-22T05:49:21.993Z,21.90
2023-05-22T05:49:54.458Z,18.30
2023-05-22T05:50:26.909Z,16.60
2023-05-22T05:50:59.362Z,16.10
2023-05-22T05:51:31.845Z,15.00
2023-05-22T05:52:04.356Z,15.00
2023-05-22T05:52:36.859Z,14.30
2023-05-22T05:53:09.277Z,14.90
2023-05-22T05:53:41.690Z,16.80
2023-05-22T05:54:14.170Z,17.50
2023-05-22T05:54:46.638Z,17.40
2023-05-22T05:55:19.055Z,16.80
2023-05-22T05:55:51.555Z,14.70
2023-05-22T05:56:24.003Z,15.90
2023-05-22T05:56:56.477Z,16.90
2023-05-22T05:57:28.922Z,18.00
2023-05-22T05:58:01.358Z,17.60
2023-05-22T05:58:33.821Z,16.50
2023-05-22T05:59:06.271Z,17.40
2023-05-22T05:59:38.708Z,17.50
2023-05-22T06:00:11.137Z,16.50
2023-05-22T06:00:43.601Z,16.30
2023-05-22T06:01:16.084Z,16.10
2023-05-22T06:01:48.523Z,19.50
2023-05-22T06:02:21.017Z,19.60
2023-05-22T06:02:53.516Z,19.60
2023-05-22T06:03:25.998Z,16.70
2023-05-22T06:03:58.505Z,17.30
2023-05-22T06:04:30.844Z,18.40
2023-05-22T06:05:03.486Z,14.60
2023-05-22T06:05:35.825Z,15.30
2023-05-22T06:06:08.175Z,15.70
2023-05-22T06:06:40.615Z,14.40
2023-05-22T06:07:13.035Z,15.20
2023-05-22T06:07:45.461Z,15.70
2023-05-22T06:08:17.917Z,22.60
2023-05-22T06:08:50.379Z,27.50
2023-05-22T06:09:22.833Z,24.30
2023-05-22T06:09:55.343Z,19.90
2023-05-22T06:10:27.789Z,18.10
2023-05-22T06:11:00.253Z,16.60
2023-05-22T06:11:32.717Z,16.00
2023-05-22T06:12:05.199Z,16.70
2023-05-22T06:12:37.623Z,15.60
2023-05-22T06:13:10.139Z,14.70
2023-05-22T06:13:42.597Z,15.60
2023-05-22T06:14:15.047Z,15.40
2023-05-22T06:14:47.477Z,16.80
2023-05-22T06:15:19.904Z,17.50
2023-05-22T06:15:52.439Z,17.30
2023-05-22T06:16:24.888Z,18.20
2023-05-22T06:16:57.359Z,17.80
2023-05-22T06:17:29.855Z,15.20
2023-05-22T06:18:02.303Z,15.90
2023-05-22T06:18:34.723Z,18.80
2023-05-22T06:19:07.267Z,16.80
2023-05-22T06:19:39.691Z,15.60
2023-05-22T06:20:12.177Z,17.20
2023-05-22T06:20:44.651Z,18.00
2023-05-22T06:21:17.076Z,18.40
2023-05-22T06:21:50.812Z,17.80
2023-05-22T06:22:21.996Z,17.30
2023-05-22T06:22:54.495Z,17.90
2023-05-22T06:23:26.970Z,18.60
2023-05-22T06:23:59.456Z,18.40
2023-05-22T06:24:31.942Z,16.90
2023-05-22T06:25:04.409Z,15.20
2023-05-22T06:25:36.814Z,16.90
2023-05-22T06:26:09.243Z,17.50
2023-05-22T06:26:41.688Z,18.00
2023-05-22T06:27:14.135Z,19.50
2023-05-22T06:27:46.549Z,19.00
2023-05-22T06:28:18.996Z,18.20
2023-05-22T06:28:51.432Z,18.10
2023-05-22T06:29:23.877Z,18.10
2023-05-22T06:29:56.632Z,16.60
2023-05-22T06:30:39.697Z,17.10
2023-05-22T06:31:01.170Z,18.60
2023-05-22T06:31:33.614Z,17.60
2023-05-22T06:32:06.091Z,28.30
2023-05-22T06:32:38.707Z,27.70
2023-05-22T06:33:10.987Z,17.30
2023-05-22T06:33:43.617Z,18.30
2023-05-22T06:34:15.958Z,17.30
2023-05-22T06:34:48.263Z,15.20
2023-05-22T06:35:20.724Z,17.80
2023-05-22T06:35:53.146Z,17.60
2023-05-22T06:36:25.620Z,16.20
2023-05-22T06:36:58.073Z,16.20
2023-05-22T06:37:30.541Z,15.40
2023-05-22T06:38:03.009Z,15.90
2023-05-22T06:38:35.456Z,17.30
2023-05-22T06:39:07.907Z,18.50
2023-05-22T06:39:40.403Z,17.70
2023-05-22T06:40:12.842Z,18.60
2023-05-22T06:40:45.329Z,17.40
2023-05-22T06:41:17.804Z,16.90
2023-05-22T06:41:50.312Z,16.10
2023-05-22T06:42:22.779Z,16.80
2023-05-22T06:42:55.261Z,16.50
2023-05-22T06:43:27.726Z,23.80
2023-05-22T06:44:00.192Z,26.00
2023-05-22T06:44:32.608Z,18.20
2023-05-22T06:45:05.047Z,19.90
2023-05-22T06:45:37.693Z,18.30
2023-05-22T06:46:10.021Z,19.10
2023-05-22T06:46:42.482Z,20.10
2023-05-22T06:47:14.945Z,18.50
2023-05-22T06:47:47.463Z,18.50
2023-05-22T06:48:19.857Z,18.00
2023-05-22T06:48:52.302Z,19.40
2023-05-22T06:49:24.757Z,20.30
2023-05-22T06:49:57.209Z,18.20
2023-05-22T06:50:29.664Z,18.40
2023-05-22T06:51:02.145Z,19.00
2023-05-22T06:51:34.633Z,18.80
2023-05-22T06:52:07.057Z,17.80
2023-05-22T06:52:39.497Z,18.00
2023-05-22T06:53:11.973Z,20.50
2023-05-22T06:53:44.478Z,18.90
2023-05-22T06:54:16.956Z,19.10
2023-05-22T06:54:49.398Z,19.40
2023-05-22T06:55:21.843Z,17.10
2023-05-22T06:55:54.327Z,25.50
2023-05-22T06:56:26.794Z,24.50
2023-05-22T06:56:59.286Z,17.20
2023-05-22T06:57:31.796Z,18.60
2023-05-22T06:58:04.298Z,18.20
2023-05-22T06:58:36.773Z,17.10
2023-05-22T06:59:09.263Z,21.40